sensor_id;sensor_type;location;lat;lon;timestamp;temperature;humidity
16200;DHT22;8207;52.494;4.654;2023-01-24T00:00:19;4.10;99.90
16200;DHT22;8207;52.494;4.654;2023-01-24T00:02:46;4.10;99.90
16200;DHT22;8207;52.494;4.654;2023-01-24T00:05:13;4.10;99.90
16200;DHT22;8207;52.494;4.654;2023-01-24T00:07:40;4.10;99.90
16200;DHT22;8207;52.494;4.654;2023-01-24T00:10:08;4.10;99.90
16200;DHT22;8207;52.494;4.654;2023-01-24T00:12:37;4.10;99.90
16200;DHT22;8207;52.494;4.654;2023-01-24T00:15:04;4.10;99.90
16200;DHT22;8207;52.494;4.654;2023-01-24T00:17:31;4.10;99.90
16200;DHT22;8207;52.494;4.654;2023-01-24T00:19:58;4.10;99.90
16200;DHT22;8207;52.494;4.654;2023-01-24T00:22:25;4.10;99.90
16200;DHT22;8207;52.494;4.654;2023-01-24T00:24:52;4.10;99.90
16200;DHT22;8207;52.494;4.654;2023-01-24T00:27:19;4.10;99.90
16200;DHT22;8207;52.494;4.654;2023-01-24T00:29:47;4.10;99.90
16200;DHT22;8207;52.494;4.654;2023-01-24T00:32:14;4.20;99.90
16200;DHT22;8207;52.494;4.654;2023-01-24T00:34:41;4.10;99.90
16200;DHT22;8207;52.494;4.654;2023-01-24T00:37:08;4.10;99.90
16200;DHT22;8207;52.494;4.654;2023-01-24T00:39:35;4.10;99.90
16200;DHT22;8207;52.494;4.654;2023-01-24T00:42:02;4.10;99.90
16200;DHT22;8207;52.494;4.654;2023-01-24T00:44:29;4.10;99.90
16200;DHT22;8207;52.494;4.654;2023-01-24T00:46:57;4.10;99.90
16200;DHT22;8207;52.494;4.654;2023-01-24T00:49:24;4.10;99.90
16200;DHT22;8207;52.494;4.654;2023-01-24T00:51:51;4.00;99.90
16200;DHT22;8207;52.494;4.654;2023-01-24T00:54:18;4.00;99.90
16200;DHT22;8207;52.494;4.654;2023-01-24T00:56:45;4.10;99.90
16200;DHT22;8207;52.494;4.654;2023-01-24T00:59:12;4.00;99.90
16200;DHT22;8207;52.494;4.654;2023-01-24T01:01:39;4.00;99.90
16200;DHT22;8207;52.494;4.654;2023-01-24T01:04:08;4.00;99.90
16200;DHT22;8207;52.494;4.654;2023-01-24T01:06:35;4.10;99.90
16200;DHT22;8207;52.494;4.654;2023-01-24T01:09:02;4.00;99.90
16200;DHT22;8207;52.494;4.654;2023-01-24T01:11:29;4.10;99.90
16200;DHT22;8207;52.494;4.654;2023-01-24T01:13:56;4.10;99.90
16200;DHT22;8207;52.494;4.654;2023-01-24T01:16:24;4.10;99.90
16200;DHT22;8207;52.494;4.654;2023-01-24T01:18:54;4.10;99.90
16200;DHT22;8207;52.494;4.654;2023-01-24T01:21:23;4.10;99.90
16200;DHT22;8207;52.494;4.654;2023-01-24T01:23:50;4.10;99.90
16200;DHT22;8207;52.494;4.654;2023-01-24T01:26:19;4.10;99.90
16200;DHT22;8207;52.494;4.654;2023-01-24T01:28:46;4.00;99.90
16200;DHT22;8207;52.494;4.654;2023-01-24T01:31:13;4.00;99.90
16200;DHT22;8207;52.494;4.654;2023-01-24T01:33:40;4.10;99.90
16200;DHT22;8207;52.494;4.654;2023-01-24T01:36:07;4.10;99.90
16200;DHT22;8207;52.494;4.654;2023-01-24T01:38:35;4.10;99.90
16200;DHT22;8207;52.494;4.654;2023-01-24T01:41:02;4.10;99.90
16200;DHT22;8207;52.494;4.654;2023-01-24T01:43:30;4.10;99.90
16200;DHT22;8207;52.494;4.654;2023-01-24T01:45:59;4.10;99.90
16200;DHT22;8207;52.494;4.654;2023-01-24T01:48:34;4.10;99.90
16200;DHT22;8207;52.494;4.654;2023-01-24T01:51:06;4.10;99.90
16200;DHT22;8207;52.494;4.654;2023-01-24T01:53:40;4.10;99.90
16200;DHT22;8207;52.494;4.654;2023-01-24T01:56:12;4.10;99.90
16200;DHT22;8207;52.494;4.654;2023-01-24T01:58:41;4.10;99.90
16200;DHT22;8207;52.494;4.654;2023-01-24T02:01:09;4.00;99.90
16200;DHT22;8207;52.494;4.654;2023-01-24T02:03:41;4.00;99.90
16200;DHT22;8207;52.494;4.654;2023-01-24T02:06:33;4.00;99.90
16200;DHT22;8207;52.494;4.654;2023-01-24T02:09:04;4.00;99.90
16200;DHT22;8207;52.494;4.654;2023-01-24T02:11:34;4.00;99.90
16200;DHT22;8207;52.494;4.654;2023-01-24T02:14:05;4.00;99.90
16200;DHT22;8207;52.494;4.654;2023-01-24T02:16:50;4.00;99.90
16200;DHT22;8207;52.494;4.654;2023-01-24T02:19:26;4.00;99.90
16200;DHT22;8207;52.494;4.654;2023-01-24T02:21:59;4.00;99.90
16200;DHT22;8207;52.494;4.654;2023-01-24T02:24:33;3.90;99.90
16200;DHT22;8207;52.494;4.654;2023-01-24T02:27:05;4.00;99.90
16200;DHT22;8207;52.494;4.654;2023-01-24T02:29:31;4.00;99.90
16200;DHT22;8207;52.494;4.654;2023-01-24T02:32:01;4.00;99.90
16200;DHT22;8207;52.494;4.654;2023-01-24T02:34:29;4.00;99.90
16200;DHT22;8207;52.494;4.654;2023-01-24T02:36:58;4.00;99.90
16200;DHT22;8207;52.494;4.654;2023-01-24T02:39:29;4.00;99.90
16200;DHT22;8207;52.494;4.654;2023-01-24T02:42:02;4.00;99.90
16200;DHT22;8207;52.494;4.654;2023-01-24T02:44:36;4.00;99.90
16200;DHT22;8207;52.494;4.654;2023-01-24T02:47:04;4.00;99.90
16200;DHT22;8207;52.494;4.654;2023-01-24T02:49:31;3.90;99.90
16200;DHT22;8207;52.494;4.654;2023-01-24T02:51:58;3.90;99.90
16200;DHT22;8207;52.494;4.654;2023-01-24T02:54:42;3.90;99.90
16200;DHT22;8207;52.494;4.654;2023-01-24T02:57:09;3.90;99.90
16200;DHT22;8207;52.494;4.654;2023-01-24T02:59:54;3.90;99.90
16200;DHT22;8207;52.494;4.654;2023-01-24T03:02:21;4.00;99.90
16200;DHT22;8207;52.494;4.654;2023-01-24T03:04:48;3.90;99.90
16200;DHT22;8207;52.494;4.654;2023-01-24T03:07:15;3.90;99.90
16200;DHT22;8207;52.494;4.654;2023-01-24T03:09:42;4.00;99.90
16200;DHT22;8207;52.494;4.654;2023-01-24T03:12:12;4.00;99.90
16200;DHT22;8207;52.494;4.654;2023-01-24T03:14:58;3.90;99.90
16200;DHT22;8207;52.494;4.654;2023-01-24T03:17:43;3.90;99.90
16200;DHT22;8207;52.494;4.654;2023-01-24T03:20:27;3.90;99.90
16200;DHT22;8207;52.494;4.654;2023-01-24T03:23:12;3.90;99.90
16200;DHT22;8207;52.494;4.654;2023-01-24T03:25:57;3.90;99.90
16200;DHT22;8207;52.494;4.654;2023-01-24T03:28:42;3.90;99.90
16200;DHT22;8207;52.494;4.654;2023-01-24T03:31:28;3.90;99.90
16200;DHT22;8207;52.494;4.654;2023-01-24T03:34:12;4.00;99.90
16200;DHT22;8207;52.494;4.654;2023-01-24T03:36:58;3.90;99.90
16200;DHT22;8207;52.494;4.654;2023-01-24T03:39:25;3.90;99.90
16200;DHT22;8207;52.494;4.654;2023-01-24T03:42:09;3.90;99.90
16200;DHT22;8207;52.494;4.654;2023-01-24T03:44:36;3.90;99.90
16200;DHT22;8207;52.494;4.654;2023-01-24T03:47:04;3.90;99.90
16200;DHT22;8207;52.494;4.654;2023-01-24T03:49:31;3.90;99.90
16200;DHT22;8207;52.494;4.654;2023-01-24T03:52:16;3.90;99.90
16200;DHT22;8207;52.494;4.654;2023-01-24T03:54:53;4.00;99.90
16200;DHT22;8207;52.494;4.654;2023-01-24T03:57:20;3.90;99.90
16200;DHT22;8207;52.494;4.654;2023-01-24T03:59:47;4.00;99.90
16200;DHT22;8207;52.494;4.654;2023-01-24T04:02:16;3.90;99.90
16200;DHT22;8207;52.494;4.654;2023-01-24T04:04:43;3.90;99.90
16200;DHT22;8207;52.494;4.654;2023-01-24T04:07:28;4.00;99.90
16200;DHT22;8207;52.494;4.654;2023-01-24T04:09:55;3.90;99.90
16200;DHT22;8207;52.494;4.654;2023-01-24T04:12:23;3.90;99.90
16200;DHT22;8207;52.494;4.654;2023-01-24T04:14:50;4.00;99.90
16200;DHT22;8207;52.494;4.654;2023-01-24T04:17:18;3.90;99.90
16200;DHT22;8207;52.494;4.654;2023-01-24T04:19:46;3.90;99.90
16200;DHT22;8207;52.494;4.654;2023-01-24T04:22:14;3.90;99.90
16200;DHT22;8207;52.494;4.654;2023-01-24T04:24:42;3.90;99.90
16200;DHT22;8207;52.494;4.654;2023-01-24T04:27:09;3.90;99.90
16200;DHT22;8207;52.494;4.654;2023-01-24T04:29:35;3.90;99.90
16200;DHT22;8207;52.494;4.654;2023-01-24T04:32:03;3.90;99.90
16200;DHT22;8207;52.494;4.654;2023-01-24T04:34:32;3.80;99.90
16200;DHT22;8207;52.494;4.654;2023-01-24T04:36:58;3.80;99.90
16200;DHT22;8207;52.494;4.654;2023-01-24T04:39:25;3.80;99.90
16200;DHT22;8207;52.494;4.654;2023-01-24T04:41:52;3.80;99.90
16200;DHT22;8207;52.494;4.654;2023-01-24T04:44:19;3.80;99.90
16200;DHT22;8207;52.494;4.654;2023-01-24T04:46:46;3.80;99.90
16200;DHT22;8207;52.494;4.654;2023-01-24T04:49:13;3.70;99.90
16200;DHT22;8207;52.494;4.654;2023-01-24T04:51:41;3.80;99.90
16200;DHT22;8207;52.494;4.654;2023-01-24T04:54:08;3.70;99.90
16200;DHT22;8207;52.494;4.654;2023-01-24T04:56:35;3.70;99.90
16200;DHT22;8207;52.494;4.654;2023-01-24T04:59:02;3.70;99.90
16200;DHT22;8207;52.494;4.654;2023-01-24T05:01:29;3.80;99.90
16200;DHT22;8207;52.494;4.654;2023-01-24T05:03:56;3.80;99.90
16200;DHT22;8207;52.494;4.654;2023-01-24T05:06:25;3.80;99.90
16200;DHT22;8207;52.494;4.654;2023-01-24T05:08:54;3.80;99.90
16200;DHT22;8207;52.494;4.654;2023-01-24T05:11:21;3.80;99.90
16200;DHT22;8207;52.494;4.654;2023-01-24T05:13:49;3.80;99.90
16200;DHT22;8207;52.494;4.654;2023-01-24T05:16:16;3.80;99.90
16200;DHT22;8207;52.494;4.654;2023-01-24T05:18:44;3.80;99.90
16200;DHT22;8207;52.494;4.654;2023-01-24T05:21:12;3.80;99.90
16200;DHT22;8207;52.494;4.654;2023-01-24T05:23:40;3.80;99.90
16200;DHT22;8207;52.494;4.654;2023-01-24T05:26:09;3.80;99.90
16200;DHT22;8207;52.494;4.654;2023-01-24T05:28:36;3.80;99.90
16200;DHT22;8207;52.494;4.654;2023-01-24T05:31:04;3.80;99.90
16200;DHT22;8207;52.494;4.654;2023-01-24T05:33:32;3.80;99.90
16200;DHT22;8207;52.494;4.654;2023-01-24T05:36:00;3.80;99.90
16200;DHT22;8207;52.494;4.654;2023-01-24T05:38:27;3.80;99.90
16200;DHT22;8207;52.494;4.654;2023-01-24T05:40:58;3.80;99.90
16200;DHT22;8207;52.494;4.654;2023-01-24T05:43:27;3.80;99.90
16200;DHT22;8207;52.494;4.654;2023-01-24T05:45:57;3.80;99.90
16200;DHT22;8207;52.494;4.654;2023-01-24T05:48:24;3.80;99.90
16200;DHT22;8207;52.494;4.654;2023-01-24T05:50:56;3.80;99.90
16200;DHT22;8207;52.494;4.654;2023-01-24T05:53:23;3.80;99.90
16200;DHT22;8207;52.494;4.654;2023-01-24T05:55:54;3.70;99.90
16200;DHT22;8207;52.494;4.654;2023-01-24T05:58:21;3.70;99.90
16200;DHT22;8207;52.494;4.654;2023-01-24T06:00:50;3.70;99.90
16200;DHT22;8207;52.494;4.654;2023-01-24T06:03:17;3.70;99.90
16200;DHT22;8207;52.494;4.654;2023-01-24T06:05:48;3.70;99.90
16200;DHT22;8207;52.494;4.654;2023-01-24T06:08:15;3.80;99.90
16200;DHT22;8207;52.494;4.654;2023-01-24T06:10:42;3.80;99.90
16200;DHT22;8207;52.494;4.654;2023-01-24T06:13:10;3.80;99.90
16200;DHT22;8207;52.494;4.654;2023-01-24T06:15:37;3.80;99.90
16200;DHT22;8207;52.494;4.654;2023-01-24T06:18:07;3.80;99.90
16200;DHT22;8207;52.494;4.654;2023-01-24T06:20:38;3.80;99.90
16200;DHT22;8207;52.494;4.654;2023-01-24T06:23:06;3.70;99.90
16200;DHT22;8207;52.494;4.654;2023-01-24T06:25:34;3.70;99.90
16200;DHT22;8207;52.494;4.654;2023-01-24T06:28:01;3.70;99.90
16200;DHT22;8207;52.494;4.654;2023-01-24T06:30:29;3.70;99.90
16200;DHT22;8207;52.494;4.654;2023-01-24T06:33:12;3.70;99.90
16200;DHT22;8207;52.494;4.654;2023-01-24T06:35:47;3.70;99.90
16200;DHT22;8207;52.494;4.654;2023-01-24T06:38:18;3.70;99.90
16200;DHT22;8207;52.494;4.654;2023-01-24T06:40:48;3.70;99.90
16200;DHT22;8207;52.494;4.654;2023-01-24T06:43:18;3.60;99.90
16200;DHT22;8207;52.494;4.654;2023-01-24T06:45:45;3.60;99.90
16200;DHT22;8207;52.494;4.654;2023-01-24T06:48:14;3.60;99.90
16200;DHT22;8207;52.494;4.654;2023-01-24T06:50:41;3.60;99.90
16200;DHT22;8207;52.494;4.654;2023-01-24T06:53:08;3.60;99.90
16200;DHT22;8207;52.494;4.654;2023-01-24T06:55:35;3.50;99.90
16200;DHT22;8207;52.494;4.654;2023-01-24T06:58:03;3.60;99.90
16200;DHT22;8207;52.494;4.654;2023-01-24T07:00:30;3.60;99.90
16200;DHT22;8207;52.494;4.654;2023-01-24T07:02:58;3.60;99.90
16200;DHT22;8207;52.494;4.654;2023-01-24T07:05:27;3.60;99.90
16200;DHT22;8207;52.494;4.654;2023-01-24T07:07:54;3.60;99.90
16200;DHT22;8207;52.494;4.654;2023-01-24T07:10:21;3.60;99.90
16200;DHT22;8207;52.494;4.654;2023-01-24T07:12:48;3.60;99.90
16200;DHT22;8207;52.494;4.654;2023-01-24T07:15:15;3.60;99.90
16200;DHT22;8207;52.494;4.654;2023-01-24T07:17:43;3.60;99.90
16200;DHT22;8207;52.494;4.654;2023-01-24T07:20:12;3.50;99.90
16200;DHT22;8207;52.494;4.654;2023-01-24T07:22:42;3.50;99.90
16200;DHT22;8207;52.494;4.654;2023-01-24T07:25:12;3.60;99.90
16200;DHT22;8207;52.494;4.654;2023-01-24T07:27:41;3.60;99.90
16200;DHT22;8207;52.494;4.654;2023-01-24T07:30:10;3.60;99.90
16200;DHT22;8207;52.494;4.654;2023-01-24T07:32:37;3.60;99.90
16200;DHT22;8207;52.494;4.654;2023-01-24T07:35:06;3.60;99.90
16200;DHT22;8207;52.494;4.654;2023-01-24T07:37:33;3.50;99.90
16200;DHT22;8207;52.494;4.654;2023-01-24T07:40:02;3.60;99.90
16200;DHT22;8207;52.494;4.654;2023-01-24T07:42:29;3.60;99.90
16200;DHT22;8207;52.494;4.654;2023-01-24T07:44:56;3.60;99.90
16200;DHT22;8207;52.494;4.654;2023-01-24T07:47:26;3.60;99.90
16200;DHT22;8207;52.494;4.654;2023-01-24T07:49:53;3.50;99.90
16200;DHT22;8207;52.494;4.654;2023-01-24T07:52:20;3.60;99.90
16200;DHT22;8207;52.494;4.654;2023-01-24T07:54:47;3.50;99.90
16200;DHT22;8207;52.494;4.654;2023-01-24T07:57:15;3.50;99.90
16200;DHT22;8207;52.494;4.654;2023-01-24T07:59:42;3.60;99.90
16200;DHT22;8207;52.494;4.654;2023-01-24T08:02:10;3.60;99.90
16200;DHT22;8207;52.494;4.654;2023-01-24T08:04:37;3.60;99.90
16200;DHT22;8207;52.494;4.654;2023-01-24T08:07:04;3.50;99.90
16200;DHT22;8207;52.494;4.654;2023-01-24T08:09:43;3.50;99.90
16200;DHT22;8207;52.494;4.654;2023-01-24T08:12:10;3.60;99.90
16200;DHT22;8207;52.494;4.654;2023-01-24T08:17:47;3.60;99.90
16200;DHT22;8207;52.494;4.654;2023-01-24T08:20:14;3.60;99.90
16200;DHT22;8207;52.494;4.654;2023-01-24T08:22:42;3.50;99.90
16200;DHT22;8207;52.494;4.654;2023-01-24T08:25:09;3.50;99.90
16200;DHT22;8207;52.494;4.654;2023-01-24T08:27:39;3.50;99.90
16200;DHT22;8207;52.494;4.654;2023-01-24T08:30:08;3.50;99.90
16200;DHT22;8207;52.494;4.654;2023-01-24T08:32:36;3.40;99.90
16200;DHT22;8207;52.494;4.654;2023-01-24T08:35:05;3.40;99.90
16200;DHT22;8207;52.494;4.654;2023-01-24T08:37:32;3.40;99.90
16200;DHT22;8207;52.494;4.654;2023-01-24T08:39:59;3.40;99.90
16200;DHT22;8207;52.494;4.654;2023-01-24T08:42:26;3.50;99.90
16200;DHT22;8207;52.494;4.654;2023-01-24T08:44:52;3.50;99.90
16200;DHT22;8207;52.494;4.654;2023-01-24T08:47:20;3.50;99.90
16200;DHT22;8207;52.494;4.654;2023-01-24T08:49:46;3.50;99.90
16200;DHT22;8207;52.494;4.654;2023-01-24T08:52:16;3.50;99.90
16200;DHT22;8207;52.494;4.654;2023-01-24T08:54:42;3.50;99.90
16200;DHT22;8207;52.494;4.654;2023-01-24T08:57:10;3.50;99.90
16200;DHT22;8207;52.494;4.654;2023-01-24T08:59:36;3.50;99.90
16200;DHT22;8207;52.494;4.654;2023-01-24T09:02:04;3.60;99.90
16200;DHT22;8207;52.494;4.654;2023-01-24T09:04:31;3.60;99.90
16200;DHT22;8207;52.494;4.654;2023-01-24T09:06:58;3.70;99.90
16200;DHT22;8207;52.494;4.654;2023-01-24T09:09:26;3.60;99.90
16200;DHT22;8207;52.494;4.654;2023-01-24T09:11:53;3.60;99.90
16200;DHT22;8207;52.494;4.654;2023-01-24T09:14:20;3.60;99.90
16200;DHT22;8207;52.494;4.654;2023-01-24T09:16:47;3.60;99.90
16200;DHT22;8207;52.494;4.654;2023-01-24T09:19:14;3.60;99.90
16200;DHT22;8207;52.494;4.654;2023-01-24T09:21:41;3.60;99.90
16200;DHT22;8207;52.494;4.654;2023-01-24T09:24:09;3.60;99.90
16200;DHT22;8207;52.494;4.654;2023-01-24T09:26:37;3.60;99.90
16200;DHT22;8207;52.494;4.654;2023-01-24T09:29:05;3.60;99.90
16200;DHT22;8207;52.494;4.654;2023-01-24T09:31:31;3.60;99.90
16200;DHT22;8207;52.494;4.654;2023-01-24T09:33:58;3.70;99.90
16200;DHT22;8207;52.494;4.654;2023-01-24T09:36:25;3.70;99.90
16200;DHT22;8207;52.494;4.654;2023-01-24T09:38:53;3.70;99.90
16200;DHT22;8207;52.494;4.654;2023-01-24T09:41:26;3.70;99.90
16200;DHT22;8207;52.494;4.654;2023-01-24T09:43:59;3.60;99.90
16200;DHT22;8207;52.494;4.654;2023-01-24T09:46:30;3.50;99.90
16200;DHT22;8207;52.494;4.654;2023-01-24T09:49:04;3.50;99.90
16200;DHT22;8207;52.494;4.654;2023-01-24T09:51:34;3.50;99.90
16200;DHT22;8207;52.494;4.654;2023-01-24T09:54:04;3.50;99.90
16200;DHT22;8207;52.494;4.654;2023-01-24T09:56:35;3.50;99.90
16200;DHT22;8207;52.494;4.654;2023-01-24T09:59:11;3.60;99.90
16200;DHT22;8207;52.494;4.654;2023-01-24T10:01:40;3.60;99.90
16200;DHT22;8207;52.494;4.654;2023-01-24T10:04:17;3.50;99.90
16200;DHT22;8207;52.494;4.654;2023-01-24T10:09:43;3.60;99.90
16200;DHT22;8207;52.494;4.654;2023-01-24T10:12:25;3.70;99.90
16200;DHT22;8207;52.494;4.654;2023-01-24T10:15:09;3.70;99.90
16200;DHT22;8207;52.494;4.654;2023-01-24T10:17:50;3.70;99.90
16200;DHT22;8207;52.494;4.654;2023-01-24T10:20:45;3.70;99.90
16200;DHT22;8207;52.494;4.654;2023-01-24T10:23:15;3.80;99.90
16200;DHT22;8207;52.494;4.654;2023-01-24T10:25:55;3.80;99.90
16200;DHT22;8207;52.494;4.654;2023-01-24T10:28:27;3.80;99.90
16200;DHT22;8207;52.494;4.654;2023-01-24T10:31:04;3.70;99.90
16200;DHT22;8207;52.494;4.654;2023-01-24T10:33:35;3.70;99.90
16200;DHT22;8207;52.494;4.654;2023-01-24T10:36:08;3.60;99.90
16200;DHT22;8207;52.494;4.654;2023-01-24T10:38:37;3.60;99.90
16200;DHT22;8207;52.494;4.654;2023-01-24T10:41:17;3.70;99.90
16200;DHT22;8207;52.494;4.654;2023-01-24T10:43:47;3.70;99.90
16200;DHT22;8207;52.494;4.654;2023-01-24T10:46:42;3.70;99.90
16200;DHT22;8207;52.494;4.654;2023-01-24T10:49:17;3.70;99.90
16200;DHT22;8207;52.494;4.654;2023-01-24T10:52:07;3.80;99.90
16200;DHT22;8207;52.494;4.654;2023-01-24T10:54:45;3.80;99.90
16200;DHT22;8207;52.494;4.654;2023-01-24T10:57:35;3.90;99.90
16200;DHT22;8207;52.494;4.654;2023-01-24T11:00:17;3.90;99.90
16200;DHT22;8207;52.494;4.654;2023-01-24T11:02:49;3.90;99.90
16200;DHT22;8207;52.494;4.654;2023-01-24T11:05:18;3.90;99.90
16200;DHT22;8207;52.494;4.654;2023-01-24T11:07:47;3.90;99.90
16200;DHT22;8207;52.494;4.654;2023-01-24T11:10:23;3.90;99.90
16200;DHT22;8207;52.494;4.654;2023-01-24T11:12:52;3.80;99.90
16200;DHT22;8207;52.494;4.654;2023-01-24T11:15:25;3.80;99.90
16200;DHT22;8207;52.494;4.654;2023-01-24T11:17:56;3.80;99.90
16200;DHT22;8207;52.494;4.654;2023-01-24T11:20:32;3.80;99.90
16200;DHT22;8207;52.494;4.654;2023-01-24T11:23:04;3.80;99.90
16200;DHT22;8207;52.494;4.654;2023-01-24T11:25:32;3.80;99.90
16200;DHT22;8207;52.494;4.654;2023-01-24T11:27:59;3.80;99.90
16200;DHT22;8207;52.494;4.654;2023-01-24T11:30:26;3.70;99.90
16200;DHT22;8207;52.494;4.654;2023-01-24T11:33:27;3.80;99.90
16200;DHT22;8207;52.494;4.654;2023-01-24T11:35:59;3.70;99.90
16200;DHT22;8207;52.494;4.654;2023-01-24T11:38:32;3.60;99.90
16200;DHT22;8207;52.494;4.654;2023-01-24T11:41:09;3.60;99.90
16200;DHT22;8207;52.494;4.654;2023-01-24T11:43:50;3.60;99.90
16200;DHT22;8207;52.494;4.654;2023-01-24T11:46:29;3.60;99.90
16200;DHT22;8207;52.494;4.654;2023-01-24T11:49:17;3.50;99.90
16200;DHT22;8207;52.494;4.654;2023-01-24T11:51:50;3.60;99.90
16200;DHT22;8207;52.494;4.654;2023-01-24T11:54:33;3.60;99.90
16200;DHT22;8207;52.494;4.654;2023-01-24T11:57:12;3.70;99.90
16200;DHT22;8207;52.494;4.654;2023-01-24T11:59:58;3.80;99.90
16200;DHT22;8207;52.494;4.654;2023-01-24T12:02:37;3.90;99.90
16200;DHT22;8207;52.494;4.654;2023-01-24T12:05:31;3.90;99.90
16200;DHT22;8207;52.494;4.654;2023-01-24T12:08:19;3.90;99.90
16200;DHT22;8207;52.494;4.654;2023-01-24T12:11:01;3.90;99.90
16200;DHT22;8207;52.494;4.654;2023-01-24T12:13:34;3.90;99.90
16200;DHT22;8207;52.494;4.654;2023-01-24T12:16:11;3.90;99.90
16200;DHT22;8207;52.494;4.654;2023-01-24T12:18:52;3.90;99.90
16200;DHT22;8207;52.494;4.654;2023-01-24T12:21:24;3.90;99.90
16200;DHT22;8207;52.494;4.654;2023-01-24T12:23:54;4.00;99.90
16200;DHT22;8207;52.494;4.654;2023-01-24T12:26:24;3.90;99.90
16200;DHT22;8207;52.494;4.654;2023-01-24T12:28:59;3.90;99.90
16200;DHT22;8207;52.494;4.654;2023-01-24T12:31:34;3.80;99.90
16200;DHT22;8207;52.494;4.654;2023-01-24T12:34:12;3.80;99.90
16200;DHT22;8207;52.494;4.654;2023-01-24T12:36:46;3.80;99.90
16200;DHT22;8207;52.494;4.654;2023-01-24T12:39:19;3.70;99.90
16200;DHT22;8207;52.494;4.654;2023-01-24T12:41:53;3.80;99.90
16200;DHT22;8207;52.494;4.654;2023-01-24T12:44:29;3.80;99.90
16200;DHT22;8207;52.494;4.654;2023-01-24T12:47:16;3.90;99.90
16200;DHT22;8207;52.494;4.654;2023-01-24T12:49:56;3.90;99.90
16200;DHT22;8207;52.494;4.654;2023-01-24T12:52:35;3.90;99.90
16200;DHT22;8207;52.494;4.654;2023-01-24T12:55:10;4.00;99.90
16200;DHT22;8207;52.494;4.654;2023-01-24T12:57:43;4.00;99.90
16200;DHT22;8207;52.494;4.654;2023-01-24T13:00:15;4.00;99.90
16200;DHT22;8207;52.494;4.654;2023-01-24T13:06:03;4.00;99.90
16200;DHT22;8207;52.494;4.654;2023-01-24T13:08:45;4.00;99.90
16200;DHT22;8207;52.494;4.654;2023-01-24T13:11:19;4.00;99.90
16200;DHT22;8207;52.494;4.654;2023-01-24T13:13:54;4.00;99.90
16200;DHT22;8207;52.494;4.654;2023-01-24T13:16:47;4.00;99.90
16200;DHT22;8207;52.494;4.654;2023-01-24T13:19:28;3.90;99.90
16200;DHT22;8207;52.494;4.654;2023-01-24T13:22:05;3.90;99.90
16200;DHT22;8207;52.494;4.654;2023-01-24T13:24:50;3.90;99.90
16200;DHT22;8207;52.494;4.654;2023-01-24T13:27:30;3.90;99.90
16200;DHT22;8207;52.494;4.654;2023-01-24T13:30:26;3.90;99.90
16200;DHT22;8207;52.494;4.654;2023-01-24T13:32:58;3.80;99.90
16200;DHT22;8207;52.494;4.654;2023-01-24T13:35:28;3.80;99.90
16200;DHT22;8207;52.494;4.654;2023-01-24T13:38:01;3.80;99.90
16200;DHT22;8207;52.494;4.654;2023-01-24T13:40:31;3.80;99.90
16200;DHT22;8207;52.494;4.654;2023-01-24T13:43:02;3.80;99.90
16200;DHT22;8207;52.494;4.654;2023-01-24T13:45:48;3.90;99.90
16200;DHT22;8207;52.494;4.654;2023-01-24T13:48:53;3.80;99.90
16200;DHT22;8207;52.494;4.654;2023-01-24T13:51:45;3.80;99.90
16200;DHT22;8207;52.494;4.654;2023-01-24T13:54:34;3.80;99.90
16200;DHT22;8207;52.494;4.654;2023-01-24T13:57:24;3.80;99.90
16200;DHT22;8207;52.494;4.654;2023-01-24T14:03:13;3.90;99.90
16200;DHT22;8207;52.494;4.654;2023-01-24T14:05:46;3.80;99.90
16200;DHT22;8207;52.494;4.654;2023-01-24T14:08:30;3.70;99.90
16200;DHT22;8207;52.494;4.654;2023-01-24T14:11:18;3.70;99.90
16200;DHT22;8207;52.494;4.654;2023-01-24T14:13:57;3.60;99.90
16200;DHT22;8207;52.494;4.654;2023-01-24T14:16:56;3.60;99.90
16200;DHT22;8207;52.494;4.654;2023-01-24T14:19:27;3.70;99.90
16200;DHT22;8207;52.494;4.654;2023-01-24T14:21:59;3.60;99.90
16200;DHT22;8207;52.494;4.654;2023-01-24T14:24:32;3.60;99.90
16200;DHT22;8207;52.494;4.654;2023-01-24T14:27:04;3.60;99.90
16200;DHT22;8207;52.494;4.654;2023-01-24T14:29:41;3.60;99.90
16200;DHT22;8207;52.494;4.654;2023-01-24T14:32:18;3.60;99.90
16200;DHT22;8207;52.494;4.654;2023-01-24T14:34:51;3.60;99.90
16200;DHT22;8207;52.494;4.654;2023-01-24T14:37:20;3.60;99.90
16200;DHT22;8207;52.494;4.654;2023-01-24T14:39:47;3.70;99.90
16200;DHT22;8207;52.494;4.654;2023-01-24T14:42:15;3.70;99.90
16200;DHT22;8207;52.494;4.654;2023-01-24T14:44:53;3.70;99.90
16200;DHT22;8207;52.494;4.654;2023-01-24T14:47:22;3.70;99.90
16200;DHT22;8207;52.494;4.654;2023-01-24T14:49:51;3.70;99.90
16200;DHT22;8207;52.494;4.654;2023-01-24T14:52:20;3.60;99.90
16200;DHT22;8207;52.494;4.654;2023-01-24T14:54:51;3.60;99.90
16200;DHT22;8207;52.494;4.654;2023-01-24T14:57:20;3.60;99.90
16200;DHT22;8207;52.494;4.654;2023-01-24T15:00:04;3.60;99.90
16200;DHT22;8207;52.494;4.654;2023-01-24T15:02:33;3.60;99.90
16200;DHT22;8207;52.494;4.654;2023-01-24T15:08:15;3.50;99.90
16200;DHT22;8207;52.494;4.654;2023-01-24T15:10:42;3.50;99.90
16200;DHT22;8207;52.494;4.654;2023-01-24T15:13:18;3.50;99.90
16200;DHT22;8207;52.494;4.654;2023-01-24T15:15:47;3.50;99.90
16200;DHT22;8207;52.494;4.654;2023-01-24T15:18:27;3.50;99.90
16200;DHT22;8207;52.494;4.654;2023-01-24T15:20:56;3.50;99.90
16200;DHT22;8207;52.494;4.654;2023-01-24T15:23:26;3.50;99.90
16200;DHT22;8207;52.494;4.654;2023-01-24T15:25:54;3.50;99.90
16200;DHT22;8207;52.494;4.654;2023-01-24T15:28:26;3.40;99.90
16200;DHT22;8207;52.494;4.654;2023-01-24T15:30:56;3.40;99.90
16200;DHT22;8207;52.494;4.654;2023-01-24T15:33:23;3.30;99.90
16200;DHT22;8207;52.494;4.654;2023-01-24T15:35:51;3.30;99.90
16200;DHT22;8207;52.494;4.654;2023-01-24T15:38:26;3.30;99.90
16200;DHT22;8207;52.494;4.654;2023-01-24T15:41:01;3.30;99.90
16200;DHT22;8207;52.494;4.654;2023-01-24T15:43:31;3.30;99.90
16200;DHT22;8207;52.494;4.654;2023-01-24T15:46:27;3.30;99.90
16200;DHT22;8207;52.494;4.654;2023-01-24T15:49:33;3.20;99.90
16200;DHT22;8207;52.494;4.654;2023-01-24T15:52:21;3.20;99.90
16200;DHT22;8207;52.494;4.654;2023-01-24T15:54:52;3.20;99.90
16200;DHT22;8207;52.494;4.654;2023-01-24T15:57:24;3.20;99.90
16200;DHT22;8207;52.494;4.654;2023-01-24T15:59:54;3.20;99.90
16200;DHT22;8207;52.494;4.654;2023-01-24T16:02:23;3.10;99.90
16200;DHT22;8207;52.494;4.654;2023-01-24T16:04:50;3.10;99.90
16200;DHT22;8207;52.494;4.654;2023-01-24T16:07:17;3.00;99.90
16200;DHT22;8207;52.494;4.654;2023-01-24T16:09:45;3.00;99.90
16200;DHT22;8207;52.494;4.654;2023-01-24T16:12:15;3.00;99.90
16200;DHT22;8207;52.494;4.654;2023-01-24T16:14:46;3.00;99.90
16200;DHT22;8207;52.494;4.654;2023-01-24T16:17:16;3.00;99.90
16200;DHT22;8207;52.494;4.654;2023-01-24T16:19:45;3.00;99.90
16200;DHT22;8207;52.494;4.654;2023-01-24T16:22:12;3.00;99.90
16200;DHT22;8207;52.494;4.654;2023-01-24T16:24:39;2.90;99.90
16200;DHT22;8207;52.494;4.654;2023-01-24T16:27:08;3.00;99.90
16200;DHT22;8207;52.494;4.654;2023-01-24T16:29:36;3.00;99.90
16200;DHT22;8207;52.494;4.654;2023-01-24T16:32:03;3.10;99.90
16200;DHT22;8207;52.494;4.654;2023-01-24T16:34:30;3.10;99.90
16200;DHT22;8207;52.494;4.654;2023-01-24T16:36:58;3.10;99.90
16200;DHT22;8207;52.494;4.654;2023-01-24T16:39:25;3.10;99.90
16200;DHT22;8207;52.494;4.654;2023-01-24T16:41:53;3.10;99.90
16200;DHT22;8207;52.494;4.654;2023-01-24T16:44:20;3.10;99.90
16200;DHT22;8207;52.494;4.654;2023-01-24T16:46:48;3.00;99.90